sensor_id;sensor_type;location;lat;lon;timestamp;pressure;altitude;pressure_sealevel;temperature;humidity
56082;BME280;41957;52.060;5.138;2022-08-11T00:02:07;102423.75;;;24.21;55.47
56082;BME280;41957;52.060;5.138;2022-08-11T00:04:36;102422.94;;;24.19;55.83
56082;BME280;41957;52.060;5.138;2022-08-11T00:07:03;102430.13;;;24.18;55.53
56082;BME280;41957;52.060;5.138;2022-08-11T00:09:36;102429.28;;;24.18;55.53
56082;BME280;41957;52.060;5.138;2022-08-11T00:12:02;102427.53;;;24.17;55.74
56082;BME280;41957;52.060;5.138;2022-08-11T00:14:30;102434.81;;;24.15;55.89
56082;BME280;41957;52.060;5.138;2022-08-11T00:17:26;102433.84;;;24.16;55.95
56082;BME280;41957;52.060;5.138;2022-08-11T00:19:52;102433.13;;;24.12;55.93
56082;BME280;41957;52.060;5.138;2022-08-11T00:22:25;102428.72;;;24.11;55.75
56082;BME280;41957;52.060;5.138;2022-08-11T00:24:52;102427.84;;;24.11;55.80
56082;BME280;41957;52.060;5.138;2022-08-11T00:27:18;102431.47;;;24.10;55.66
56082;BME280;41957;52.060;5.138;2022-08-11T00:29:53;102430.59;;;24.09;55.56
56082;BME280;41957;52.060;5.138;2022-08-11T00:32:19;102434.25;;;24.08;56.06
56082;BME280;41957;52.060;5.138;2022-08-11T00:34:45;102436.84;;;24.10;55.71
56082;BME280;41957;52.060;5.138;2022-08-11T00:37:18;102427.91;;;24.09;56.09
56082;BME280;41957;52.060;5.138;2022-08-11T00:39:48;102432.31;;;24.10;55.68
56082;BME280;41957;52.060;5.138;2022-08-11T00:42:23;102429.72;;;24.09;55.56
56082;BME280;41957;52.060;5.138;2022-08-11T00:44:59;102431.47;;;24.10;56.01
56082;BME280;41957;52.060;5.138;2022-08-11T00:50:21;102437.69;;;24.10;55.90
56082;BME280;41957;52.060;5.138;2022-08-11T01:09:43;102434.44;;;24.03;55.85
56082;BME280;41957;52.060;5.138;2022-08-11T01:12:29;102437.13;;;24.03;55.85
56082;BME280;41957;52.060;5.138;2022-08-11T01:32:20;102430.31;;;23.96;56.16
56082;BME280;41957;52.060;5.138;2022-08-11T01:40:37;102429.47;;;23.96;55.57
56082;BME280;41957;52.060;5.138;2022-08-11T01:43:33;102416.03;;;23.96;56.00
56082;BME280;41957;52.060;5.138;2022-08-11T01:47:06;102422.31;;;23.95;55.65
56082;BME280;41957;52.060;5.138;2022-08-11T01:49:52;102425.00;;;23.95;56.13
56082;BME280;41957;52.060;5.138;2022-08-11T01:52:28;102418.88;;;23.93;55.68
56082;BME280;41957;52.060;5.138;2022-08-11T01:55:20;102420.59;;;23.94;55.65
56082;BME280;41957;52.060;5.138;2022-08-11T01:57:51;102410.88;;;23.91;55.55
56082;BME280;41957;52.060;5.138;2022-08-11T02:00:20;102417.19;;;23.90;55.92
56082;BME280;41957;52.060;5.138;2022-08-11T02:13:48;102416.53;;;23.85;55.85
56082;BME280;41957;52.060;5.138;2022-08-11T02:19:24;102422.91;;;23.83;55.64
56082;BME280;41957;52.060;5.138;2022-08-11T02:25:24;102416.63;;;23.84;55.96
56082;BME280;41957;52.060;5.138;2022-08-11T02:28:00;102416.63;;;23.84;55.59
56082;BME280;41957;52.060;5.138;2022-08-11T02:30:31;102415.75;;;23.83;55.62
56082;BME280;41957;52.060;5.138;2022-08-11T02:33:15;102413.94;;;23.84;55.85
56082;BME280;41957;52.060;5.138;2022-08-11T02:36:00;102410.41;;;23.83;55.99
56082;BME280;41957;52.060;5.138;2022-08-11T02:38:42;102412.28;;;23.81;55.75
56082;BME280;41957;52.060;5.138;2022-08-11T02:46:31;102404.38;;;23.78;56.13
56082;BME280;41957;52.060;5.138;2022-08-11T02:49:13;102399.00;;;23.78;55.63
56082;BME280;41957;52.060;5.138;2022-08-11T02:52:19;102401.72;;;23.76;55.84
56082;BME280;41957;52.060;5.138;2022-08-11T02:57:48;102403.50;;;23.77;55.67
56082;BME280;41957;52.060;5.138;2022-08-11T03:00:16;102397.31;;;23.75;56.04
56082;BME280;41957;52.060;5.138;2022-08-11T03:03:12;102401.81;;;23.75;55.89
56082;BME280;41957;52.060;5.138;2022-08-11T03:06:07;102401.88;;;23.73;55.91
56082;BME280;41957;52.060;5.138;2022-08-11T03:08:52;102402.84;;;23.72;55.73
56082;BME280;41957;52.060;5.138;2022-08-11T03:11:43;102394.78;;;23.72;55.99
56082;BME280;41957;52.060;5.138;2022-08-11T03:17:28;102398.47;;;23.70;55.99
56082;BME280;41957;52.060;5.138;2022-08-11T03:23:10;102395.78;;;23.70;55.79
56082;BME280;41957;52.060;5.138;2022-08-11T03:33:29;102392.31;;;23.68;55.82
56082;BME280;41957;52.060;5.138;2022-08-11T03:36:35;102393.16;;;23.68;55.71
56082;BME280;41957;52.060;5.138;2022-08-11T03:39:29;102393.16;;;23.68;56.04
56082;BME280;41957;52.060;5.138;2022-08-11T03:45:04;102395.91;;;23.67;55.92
56082;BME280;41957;52.060;5.138;2022-08-11T03:50:31;102392.44;;;23.65;56.09
56082;BME280;41957;52.060;5.138;2022-08-11T03:56:18;102386.19;;;23.64;55.73
56082;BME280;41957;52.060;5.138;2022-08-11T04:07:46;102382.72;;;23.62;55.75
56082;BME280;41957;52.060;5.138;2022-08-11T04:21:50;102377.56;;;23.57;55.71
56082;BME280;41957;52.060;5.138;2022-08-11T04:30:09;102384.59;;;23.60;55.76
56082;BME280;41957;52.060;5.138;2022-08-11T04:38:30;102378.69;;;22.73;53.00
56082;BME280;41957;52.060;5.138;2022-08-11T04:41:19;102382.63;;;22.24;53.98
56082;BME280;41957;52.060;5.138;2022-08-11T04:44:15;102376.44;;;21.99;54.37
56082;BME280;41957;52.060;5.138;2022-08-11T05:04:36;102374.25;;;21.42;56.09
56082;BME280;41957;52.060;5.138;2022-08-11T05:13:33;102379.84;;;21.36;56.12
56082;BME280;41957;52.060;5.138;2022-08-11T05:16:26;102375.41;;;21.35;56.29
56082;BME280;41957;52.060;5.138;2022-08-11T05:19:16;102370.16;;;21.31;56.59
56082;BME280;41957;52.060;5.138;2022-08-11T05:22:02;102375.56;;;21.30;56.31
56082;BME280;41957;52.060;5.138;2022-08-11T05:24:55;102369.34;;;21.29;56.76
56082;BME280;41957;52.060;5.138;2022-08-11T05:27:49;102384.59;;;21.27;56.91
56082;BME280;41957;52.060;5.138;2022-08-11T05:30:38;102376.50;;;21.29;57.25
56082;BME280;41957;52.060;5.138;2022-08-11T05:33:32;102385.28;;;21.80;55.77
56082;BME280;41957;52.060;5.138;2022-08-11T05:36:35;102382.09;;;22.14;55.11
56082;BME280;41957;52.060;5.138;2022-08-11T05:39:11;102383.22;;;22.08;55.21
56082;BME280;41957;52.060;5.138;2022-08-11T05:41:58;102386.97;;;22.04;55.19
56082;BME280;41957;52.060;5.138;2022-08-11T05:44:47;102388.56;;;22.08;55.31
56082;BME280;41957;52.060;5.138;2022-08-11T05:47:33;102390.84;;;22.19;55.08
56082;BME280;41957;52.060;5.138;2022-08-11T05:50:21;102393.81;;;22.11;54.69
56082;BME280;41957;52.060;5.138;2022-08-11T05:53:09;102392.81;;;21.92;55.33
56082;BME280;41957;52.060;5.138;2022-08-11T05:55:55;102389.69;;;21.81;55.62
56082;BME280;41957;52.060;5.138;2022-08-11T05:58:43;102388.25;;;21.72;55.95
56082;BME280;41957;52.060;5.138;2022-08-11T06:01:20;102389.25;;;21.69;56.05
56082;BME280;41957;52.060;5.138;2022-08-11T06:03:49;102395.28;;;21.74;55.71
56082;BME280;41957;52.060;5.138;2022-08-11T06:06:35;102389.13;;;21.72;55.92
56082;BME280;41957;52.060;5.138;2022-08-11T06:09:05;102394.53;;;21.71;56.47
56082;BME280;41957;52.060;5.138;2022-08-11T06:11:39;102392.69;;;21.73;56.38
56082;BME280;41957;52.060;5.138;2022-08-11T06:14:06;102401.47;;;21.76;56.11
56082;BME280;41957;52.060;5.138;2022-08-11T06:16:33;102395.16;;;21.77;55.83
56082;BME280;41957;52.060;5.138;2022-08-11T06:18:59;102405.13;;;21.74;56.11
56082;BME280;41957;52.060;5.138;2022-08-11T06:21:25;102404.94;;;21.79;56.24
56082;BME280;41957;52.060;5.138;2022-08-11T06:23:52;102397.56;;;21.85;56.07
56082;BME280;41957;52.060;5.138;2022-08-11T06:26:18;102398.22;;;21.90;56.06
56082;BME280;41957;52.060;5.138;2022-08-11T06:28:46;102395.31;;;21.96;55.95
56082;BME280;41957;52.060;5.138;2022-08-11T06:31:16;102405.63;;;22.06;55.56
56082;BME280;41957;52.060;5.138;2022-08-11T06:33:55;102393.19;;;22.05;55.27
56082;BME280;41957;52.060;5.138;2022-08-11T06:39:44;102400.84;;;22.14;55.26
56082;BME280;41957;52.060;5.138;2022-08-11T06:42:41;102396.97;;;22.23;54.42
56082;BME280;41957;52.060;5.138;2022-08-11T06:45:29;102398.56;;;22.27;54.98
56082;BME280;41957;52.060;5.138;2022-08-11T06:47:58;102393.19;;;22.27;54.75
56082;BME280;41957;52.060;5.138;2022-08-11T06:50:25;102392.34;;;22.26;54.84
56082;BME280;41957;52.060;5.138;2022-08-11T06:53:10;102387.59;;;22.33;54.17
56082;BME280;41957;52.060;5.138;2022-08-11T06:55:40;102387.59;;;22.33;54.56
56082;BME280;41957;52.060;5.138;2022-08-11T06:58:35;102388.97;;;22.43;53.61
56082;BME280;41957;52.060;5.138;2022-08-11T07:01:44;102399.03;;;22.58;54.38
56082;BME280;41957;52.060;5.138;2022-08-11T07:04:16;102393.44;;;22.63;54.10
56082;BME280;41957;52.060;5.138;2022-08-11T07:12:49;102392.59;;;22.83;54.00
56082;BME280;41957;52.060;5.138;2022-08-11T07:15:37;102396.91;;;22.85;53.59
56082;BME280;41957;52.060;5.138;2022-08-11T07:18:07;102395.69;;;22.94;52.93
56082;BME280;41957;52.060;5.138;2022-08-11T07:20:54;102394.34;;;23.04;52.13
56082;BME280;41957;52.060;5.138;2022-08-11T07:23:49;102396.06;;;23.05;52.79
56082;BME280;41957;52.060;5.138;2022-08-11T07:26:39;102398.63;;;23.08;52.99
56082;BME280;41957;52.060;5.138;2022-08-11T07:29:28;102398.75;;;23.05;52.67
56082;BME280;41957;52.060;5.138;2022-08-11T07:31:55;102393.13;;;23.11;52.51
56082;BME280;41957;52.060;5.138;2022-08-11T07:34:27;102388.47;;;23.15;51.65
56082;BME280;41957;52.060;5.138;2022-08-11T07:36:57;102395.25;;;23.24;51.13
56082;BME280;41957;52.060;5.138;2022-08-11T07:39:31;102386.03;;;23.29;50.81
56082;BME280;41957;52.060;5.138;2022-08-11T07:41:58;102394.38;;;23.42;51.19
56082;BME280;41957;52.060;5.138;2022-08-11T07:44:25;102393.16;;;23.49;51.81
56082;BME280;41957;52.060;5.138;2022-08-11T07:46:54;102395.28;;;23.62;51.47
56082;BME280;41957;52.060;5.138;2022-08-11T07:49:39;102387.06;;;23.65;51.45
56082;BME280;41957;52.060;5.138;2022-08-11T07:52:27;102391.13;;;23.73;51.51
56082;BME280;41957;52.060;5.138;2022-08-11T07:55:00;102386.28;;;23.81;51.58
56082;BME280;41957;52.060;5.138;2022-08-11T07:57:27;102395.00;;;23.87;51.58
56082;BME280;41957;52.060;5.138;2022-08-11T08:00:12;102391.28;;;23.89;51.48
56082;BME280;41957;52.060;5.138;2022-08-11T08:02:58;102398.25;;;23.93;51.64
56082;BME280;41957;52.060;5.138;2022-08-11T08:05:44;102390.84;;;23.98;51.30
56082;BME280;41957;52.060;5.138;2022-08-11T08:08:29;102397.78;;;24.02;51.28
56082;BME280;41957;52.060;5.138;2022-08-11T08:11:14;102398.66;;;24.03;51.71
56082;BME280;41957;52.060;5.138;2022-08-11T08:13:59;102393.06;;;24.08;51.44
56082;BME280;41957;52.060;5.138;2022-08-11T08:16:43;102394.66;;;24.12;51.45
56082;BME280;41957;52.060;5.138;2022-08-11T08:19:28;102391.72;;;24.16;51.37
56082;BME280;41957;52.060;5.138;2022-08-11T08:21:55;102395.16;;;24.20;51.42
56082;BME280;41957;52.060;5.138;2022-08-11T08:24:21;102393.06;;;24.25;51.33
56082;BME280;41957;52.060;5.138;2022-08-11T08:26:47;102393.72;;;24.30;51.56
56082;BME280;41957;52.060;5.138;2022-08-11T08:29:24;102389.06;;;24.34;51.43
56082;BME280;41957;52.060;5.138;2022-08-11T08:32:10;102391.53;;;24.38;51.49
56082;BME280;41957;52.060;5.138;2022-08-11T08:34:36;102387.88;;;24.39;50.97
56082;BME280;41957;52.060;5.138;2022-08-11T08:37:04;102389.50;;;24.43;51.08
56082;BME280;41957;52.060;5.138;2022-08-11T08:39:30;102391.16;;;24.46;51.20
56082;BME280;41957;52.060;5.138;2022-08-11T08:42:05;102387.44;;;24.48;51.16
56082;BME280;41957;52.060;5.138;2022-08-11T08:44:33;102387.38;;;24.50;51.54
56082;BME280;41957;52.060;5.138;2022-08-11T08:47:00;102380.03;;;24.54;51.55
56082;BME280;41957;52.060;5.138;2022-08-11T08:49:33;102379.00;;;24.56;51.40
56082;BME280;41957;52.060;5.138;2022-08-11T08:52:02;102374.38;;;24.58;51.26
56082;BME280;41957;52.060;5.138;2022-08-11T08:54:32;102366.47;;;24.55;51.58
56082;BME280;41957;52.060;5.138;2022-08-11T08:57:03;102369.72;;;24.62;51.13
56082;BME280;41957;52.060;5.138;2022-08-11T08:59:31;102375.09;;;24.62;51.19
56082;BME280;41957;52.060;5.138;2022-08-11T09:02:03;102370.63;;;24.62;51.65
56082;BME280;41957;52.060;5.138;2022-08-11T09:04:30;102373.38;;;24.61;51.24
56082;BME280;41957;52.060;5.138;2022-08-11T09:06:59;102369.81;;;24.60;51.38
56082;BME280;41957;52.060;5.138;2022-08-11T09:09:25;102375.09;;;24.62;51.85
56082;BME280;41957;52.060;5.138;2022-08-11T09:11:51;102370.78;;;24.59;51.83
56082;BME280;41957;52.060;5.138;2022-08-11T09:14:32;102372.66;;;24.57;51.84
56082;BME280;41957;52.060;5.138;2022-08-11T09:17:18;102374.47;;;24.57;51.51
56082;BME280;41957;52.060;5.138;2022-08-11T09:19:46;102370.50;;;24.46;51.95
56082;BME280;41957;52.060;5.138;2022-08-11T09:22:17;102374.97;;;24.47;52.38
56082;BME280;41957;52.060;5.138;2022-08-11T09:25:02;102374.97;;;24.47;52.36
56082;BME280;41957;52.060;5.138;2022-08-11T09:27:46;102369.88;;;24.41;52.14
56082;BME280;41957;52.060;5.138;2022-08-11T09:30:12;102360.88;;;24.42;52.61
56082;BME280;41957;52.060;5.138;2022-08-11T09:32:38;102355.50;;;24.42;52.61
56082;BME280;41957;52.060;5.138;2022-08-11T09:35:05;102359.19;;;24.40;52.37
56082;BME280;41957;52.060;5.138;2022-08-11T09:37:32;102353.69;;;24.43;52.26
56082;BME280;41957;52.060;5.138;2022-08-11T09:40:17;102347.28;;;24.45;52.03
56082;BME280;41957;52.060;5.138;2022-08-11T09:43:00;102350.84;;;24.46;52.67
56082;BME280;41957;52.060;5.138;2022-08-11T09:45:47;102343.25;;;24.54;52.34
56082;BME280;41957;52.060;5.138;2022-08-11T09:48:17;102350.78;;;24.47;53.07
56082;BME280;41957;52.060;5.138;2022-08-11T09:50:45;102337.06;;;24.52;52.69
56082;BME280;41957;52.060;5.138;2022-08-11T09:53:14;102336.91;;;24.38;53.05
56082;BME280;41957;52.060;5.138;2022-08-11T09:55:40;102342.88;;;24.44;52.96
56082;BME280;41957;52.060;5.138;2022-08-11T09:58:07;102340.47;;;24.38;53.03
56082;BME280;41957;52.060;5.138;2022-08-11T10:00:39;102350.41;;;24.36;53.42
56082;BME280;41957;52.060;5.138;2022-08-11T10:03:20;102346.91;;;24.34;53.32
56082;BME280;41957;52.060;5.138;2022-08-11T10:05:48;102345.19;;;24.33;53.61
56082;BME280;41957;52.060;5.138;2022-08-11T10:08:36;102341.88;;;24.28;53.42
56082;BME280;41957;52.060;5.138;2022-08-11T10:11:02;102346.31;;;24.29;53.51
56082;BME280;41957;52.060;5.138;2022-08-11T10:13:36;102344.50;;;24.30;53.81
56082;BME280;41957;52.060;5.138;2022-08-11T10:16:25;102338.63;;;24.21;53.61
56082;BME280;41957;52.060;5.138;2022-08-11T10:18:54;102339.66;;;24.19;54.07
56082;BME280;41957;52.060;5.138;2022-08-11T10:21:35;102337.44;;;24.10;54.13
56082;BME280;41957;52.060;5.138;2022-08-11T10:24:02;102329.53;;;24.07;54.59
56082;BME280;41957;52.060;5.138;2022-08-11T10:26:48;102336.00;;;24.02;54.61
56082;BME280;41957;52.060;5.138;2022-08-11T10:29:20;102333.47;;;23.99;54.75
56082;BME280;41957;52.060;5.138;2022-08-11T10:32:07;102317.19;;;24.02;54.89
56082;BME280;41957;52.060;5.138;2022-08-11T10:34:53;102326.94;;;24.05;54.88
56082;BME280;41957;52.060;5.138;2022-08-11T10:37:20;102325.09;;;24.06;54.96
56082;BME280;41957;52.060;5.138;2022-08-11T10:39:47;102330.47;;;24.06;55.29
56082;BME280;41957;52.060;5.138;2022-08-11T10:42:13;102324.31;;;24.03;55.72
56082;BME280;41957;52.060;5.138;2022-08-11T10:44:59;102320.69;;;24.04;55.14
56082;BME280;41957;52.060;5.138;2022-08-11T10:47:26;102328.75;;;24.04;55.90
56082;BME280;41957;52.060;5.138;2022-08-11T10:50:12;102327.00;;;24.03;56.42
56082;BME280;41957;52.060;5.138;2022-08-11T10:52:58;102323.53;;;24.01;56.18
56082;BME280;41957;52.060;5.138;2022-08-11T10:55:43;102316.50;;;23.99;56.25
56082;BME280;41957;52.060;5.138;2022-08-11T10:58:28;102311.97;;;23.99;56.62
56082;BME280;41957;52.060;5.138;2022-08-11T11:01:21;102318.38;;;23.97;57.07
56082;BME280;41957;52.060;5.138;2022-08-11T11:03:49;102319.25;;;23.97;56.71
56082;BME280;41957;52.060;5.138;2022-08-11T11:06:53;102313.88;;;23.97;57.06
56082;BME280;41957;52.060;5.138;2022-08-11T11:09:29;102305.91;;;23.96;57.32
56082;BME280;41957;52.060;5.138;2022-08-11T11:12:00;102304.16;;;23.95;57.01
56082;BME280;41957;52.060;5.138;2022-08-11T11:14:46;102302.41;;;23.94;57.46
56082;BME280;41957;52.060;5.138;2022-08-11T11:17:44;102301.63;;;23.92;57.34
56082;BME280;41957;52.060;5.138;2022-08-11T11:20:49;102305.19;;;23.92;57.63
56082;BME280;41957;52.060;5.138;2022-08-11T11:23:42;102301.63;;;23.92;57.29
56082;BME280;41957;52.060;5.138;2022-08-11T11:37:09;102290.97;;;23.90;57.30
56082;BME280;41957;52.060;5.138;2022-08-11T11:39:37;102290.97;;;23.90;57.32
56082;BME280;41957;52.060;5.138;2022-08-11T11:42:09;102283.88;;;23.89;57.22
56082;BME280;41957;52.060;5.138;2022-08-11T11:44:39;102289.22;;;23.89;57.48
56082;BME280;41957;52.060;5.138;2022-08-11T11:47:07;102282.09;;;23.88;57.24
56082;BME280;41957;52.060;5.138;2022-08-11T11:49:35;102277.59;;;23.89;57.26
56082;BME280;41957;52.060;5.138;2022-08-11T11:52:05;102285.66;;;23.89;57.20
56082;BME280;41957;52.060;5.138;2022-08-11T11:54:33;102284.72;;;23.90;57.31
56082;BME280;41957;52.060;5.138;2022-08-11T11:57:01;102283.88;;;23.89;57.74
56082;BME280;41957;52.060;5.138;2022-08-11T11:59:46;102269.53;;;23.89;57.30
56082;BME280;41957;52.060;5.138;2022-08-11T12:02:31;102265.06;;;23.89;57.16
56082;BME280;41957;52.060;5.138;2022-08-11T12:04:57;102267.75;;;23.89;57.29
56082;BME280;41957;52.060;5.138;2022-08-11T12:07:23;102261.41;;;23.90;57.51
56082;BME280;41957;52.060;5.138;2022-08-11T12:10:08;102264.91;;;23.92;57.55
56082;BME280;41957;52.060;5.138;2022-08-11T12:12:33;102257.72;;;23.93;57.16
56082;BME280;41957;52.060;5.138;2022-08-11T12:15:18;102257.78;;;23.91;57.66
56082;BME280;41957;52.060;5.138;2022-08-11T12:17:45;102262.22;;;23.92;57.66
56082;BME280;41957;52.060;5.138;2022-08-11T12:20:10;102255.97;;;23.92;57.55
56082;BME280;41957;52.060;5.138;2022-08-11T12:22:39;102251.47;;;23.92;57.54
56082;BME280;41957;52.060;5.138;2022-08-11T12:25:23;102246.25;;;23.89;57.71
56082;BME280;41957;52.060;5.138;2022-08-11T12:28:07;102245.22;;;23.92;57.42
56082;BME280;41957;52.060;5.138;2022-08-11T12:30:33;102243.41;;;23.92;57.46
56082;BME280;41957;52.060;5.138;2022-08-11T12:32:58;102240.75;;;23.92;57.73
56082;BME280;41957;52.060;5.138;2022-08-11T12:35:24;102236.13;;;23.94;57.86
56082;BME280;41957;52.060;5.138;2022-08-11T12:37:51;102245.16;;;23.93;57.47
56082;BME280;41957;52.060;5.138;2022-08-11T12:40:25;102240.75;;;23.92;57.56
56082;BME280;41957;52.060;5.138;2022-08-11T12:43:14;102230.00;;;23.92;57.80
56082;BME280;41957;52.060;5.138;2022-08-11T12:46:02;102236.13;;;23.94;57.52
56082;BME280;41957;52.060;5.138;2022-08-11T12:48:34;102225.31;;;23.96;57.67
56082;BME280;41957;52.060;5.138;2022-08-11T12:51:22;102227.16;;;23.95;58.03
56082;BME280;41957;52.060;5.138;2022-08-11T12:54:23;102224.31;;;23.98;57.90
56082;BME280;41957;52.060;5.138;2022-08-11T12:56:59;102220.66;;;23.99;57.68
56082;BME280;41957;52.060;5.138;2022-08-11T12:59:44;102217.00;;;24.00;57.75
56082;BME280;41957;52.060;5.138;2022-08-11T13:02:29;102213.41;;;24.01;58.23
56082;BME280;41957;52.060;5.138;2022-08-11T13:05:14;102210.78;;;24.00;57.90
56082;BME280;41957;52.060;5.138;2022-08-11T13:07:44;102221.38;;;24.03;58.00
56082;BME280;41957;52.060;5.138;2022-08-11T13:10:13;102207.13;;;24.01;58.44
56082;BME280;41957;52.060;5.138;2022-08-11T13:12:40;102212.34;;;24.04;57.97
56082;BME280;41957;52.060;5.138;2022-08-11T13:15:19;102204.28;;;24.04;58.50
56082;BME280;41957;52.060;5.138;2022-08-11T13:17:48;102202.50;;;24.04;58.32
56082;BME280;41957;52.060;5.138;2022-08-11T13:20:22;102201.53;;;24.06;58.56
56082;BME280;41957;52.060;5.138;2022-08-11T13:22:52;102190.84;;;24.04;58.69
56082;BME280;41957;52.060;5.138;2022-08-11T13:25:21;102198.91;;;24.04;58.25
56082;BME280;41957;52.060;5.138;2022-08-11T13:27:49;102186.44;;;24.03;58.37
56082;BME280;41957;52.060;5.138;2022-08-11T13:30:16;102174.84;;;24.02;58.70
56082;BME280;41957;52.060;5.138;2022-08-11T13:33:00;102186.38;;;24.04;58.37
56082;BME280;41957;52.060;5.138;2022-08-11T13:35:28;102180.03;;;24.06;58.28
56082;BME280;41957;52.060;5.138;2022-08-11T13:37:53;102184.47;;;24.07;58.34
56082;BME280;41957;52.060;5.138;2022-08-11T13:40:21;102181.78;;;24.07;58.74
56082;BME280;41957;52.060;5.138;2022-08-11T13:42:48;102171.88;;;24.07;58.20
56082;BME280;41957;52.060;5.138;2022-08-11T13:45:14;102174.50;;;24.09;58.39
56082;BME280;41957;52.060;5.138;2022-08-11T13:47:40;102176.22;;;24.10;58.52
56082;BME280;41957;52.060;5.138;2022-08-11T13:50:07;102173.53;;;24.10;58.38
56082;BME280;41957;52.060;5.138;2022-08-11T13:52:35;102173.53;;;24.10;58.35
56082;BME280;41957;52.060;5.138;2022-08-11T13:55:05;102172.69;;;24.09;58.86
56082;BME280;41957;52.060;5.138;2022-08-11T13:57:32;102165.41;;;24.11;58.26
56082;BME280;41957;52.060;5.138;2022-08-11T13:59:58;102164.56;;;24.11;58.97
56082;BME280;41957;52.060;5.138;2022-08-11T14:02:36;102157.25;;;24.13;58.57
56082;BME280;41957;52.060;5.138;2022-08-11T14:05:15;102167.09;;;24.14;58.66
56082;BME280;41957;52.060;5.138;2022-08-11T14:10:15;102156.25;;;24.15;58.64
56082;BME280;41957;52.060;5.138;2022-08-11T14:12:42;102152.69;;;24.15;58.89
56082;BME280;41957;52.060;5.138;2022-08-11T14:15:32;102149.03;;;24.16;58.74
56082;BME280;41957;52.060;5.138;2022-08-11T14:18:03;102152.53;;;24.18;58.54
56082;BME280;41957;52.060;5.138;2022-08-11T14:20:34;102144.47;;;24.18;58.64
56082;BME280;41957;52.060;5.138;2022-08-11T14:23:57;102141.69;;;24.19;58.88
56082;BME280;41957;52.060;5.138;2022-08-11T14:26:20;102144.38;;;24.19;58.65
56082;BME280;41957;52.060;5.138;2022-08-11T14:28:52;102139.78;;;24.21;58.72
56082;BME280;41957;52.060;5.138;2022-08-11T14:31:21;102138.91;;;24.21;58.77
56082;BME280;41957;52.060;5.138;2022-08-11T14:33:47;102133.53;;;24.21;58.92
56082;BME280;41957;52.060;5.138;2022-08-11T14:36:14;102139.72;;;24.23;58.71
56082;BME280;41957;52.060;5.138;2022-08-11T14:38:40;102128.19;;;24.21;58.77
56082;BME280;41957;52.060;5.138;2022-08-11T14:41:07;102132.53;;;24.23;58.82
56082;BME280;41957;52.060;5.138;2022-08-11T14:43:54;102131.66;;;24.23;58.83
56082;BME280;41957;52.060;5.138;2022-08-11T14:46:40;102128.88;;;24.24;58.86
56082;BME280;41957;52.060;5.138;2022-08-11T14:49:26;102124.34;;;24.25;58.79
56082;BME280;41957;52.060;5.138;2022-08-11T14:51:52;102124.34;;;24.25;58.89
56082;BME280;41957;52.060;5.138;2022-08-11T14:54:22;102117.19;;;24.25;59.10
56082;BME280;41957;52.060;5.138;2022-08-11T14:57:08;102115.25;;;24.27;59.00
56082;BME280;41957;52.060;5.138;2022-08-11T14:59:35;102113.44;;;24.28;59.06
56082;BME280;41957;52.060;5.138;2022-08-11T15:02:02;102114.25;;;24.30;58.89
56082;BME280;41957;52.060;5.138;2022-08-11T15:04:48;102104.44;;;24.29;58.93
56082;BME280;41957;52.060;5.138;2022-08-11T15:07:14;102114.16;;;24.32;59.14
56082;BME280;41957;52.060;5.138;2022-08-11T15:09:41;102105.13;;;24.33;58.68
56082;BME280;41957;52.060;5.138;2022-08-11T15:12:09;102106.00;;;24.33;59.05
56082;BME280;41957;52.060;5.138;2022-08-11T15:14:42;102099.66;;;24.34;59.24
56082;BME280;41957;52.060;5.138;2022-08-11T15:17:29;102096.97;;;24.34;58.72
56082;BME280;41957;52.060;5.138;2022-08-11T15:19:59;102093.38;;;24.35;58.77
56082;BME280;41957;52.060;5.138;2022-08-11T15:22:45;102087.97;;;24.35;58.93
56082;BME280;41957;52.060;5.138;2022-08-11T15:25:31;102095.09;;;24.36;59.11
56082;BME280;41957;52.060;5.138;2022-08-11T15:27:59;102099.44;;;24.39;59.48
56082;BME280;41957;52.060;5.138;2022-08-11T15:30:46;102098.47;;;24.40;59.02
56082;BME280;41957;52.060;5.138;2022-08-11T15:33:35;102095.00;;;24.38;58.80
56082;BME280;41957;52.060;5.138;2022-08-11T15:36:21;102094.06;;;24.39;59.62
56082;BME280;41957;52.060;5.138;2022-08-11T15:39:12;102078.97;;;24.36;59.69
56082;BME280;41957;52.060;5.138;2022-08-11T15:41:45;102085.19;;;24.37;59.19
56082;BME280;41957;52.060;5.138;2022-08-11T15:44:32;102079.81;;;24.37;59.35
56082;BME280;41957;52.060;5.138;2022-08-11T15:47:21;102082.44;;;24.38;59.33
56082;BME280;41957;52.060;5.138;2022-08-11T15:49:50;102081.47;;;24.39;59.34
56082;BME280;41957;52.060;5.138;2022-08-11T15:52:20;102078.78;;;24.39;59.35
56082;BME280;41957;52.060;5.138;2022-08-11T15:54:47;102073.41;;;24.39;59.06
56082;BME280;41957;52.060;5.138;2022-08-11T15:57:16;102067.97;;;24.41;59.13
56082;BME280;41957;52.060;5.138;2022-08-11T16:00:21;102070.59;;;24.42;59.65
56082;BME280;41957;52.060;5.138;2022-08-11T16:03:07;102068.75;;;24.43;59.13
56082;BME280;41957;52.060;5.138;2022-08-11T16:05:52;102065.22;;;24.42;59.59
56082;BME280;41957;52.060;5.138;2022-08-11T16:08:20;102064.25;;;24.43;59.58
56082;BME280;41957;52.060;5.138;2022-08-11T16:10:49;102062.59;;;24.41;59.89
56082;BME280;41957;52.060;5.138;2022-08-11T16:13:17;102064.25;;;24.43;59.31
56082;BME280;41957;52.060;5.138;2022-08-11T16:15:54;102056.97;;;24.45;59.58
56082;BME280;41957;52.060;5.138;2022-08-11T16:18:49;102057.84;;;24.46;59.52
56082;BME280;41957;52.060;5.138;2022-08-11T16:21:18;102059.50;;;24.48;59.59
56082;BME280;41957;52.060;5.138;2022-08-11T16:23:46;102054.13;;;24.48;59.62
56082;BME280;41957;52.060;5.138;2022-08-11T16:26:16;102050.56;;;24.48;59.56
56082;BME280;41957;52.060;5.138;2022-08-11T16:28:43;102049.69;;;24.47;59.02
56082;BME280;41957;52.060;5.138;2022-08-11T16:31:10;102052.28;;;24.49;59.42